sensor_id;sensor_type;location;lat;lon;timestamp;P1;durP1;ratioP1;P2;durP2;ratioP2
13611;SDS011;6877;51.436;6.774;2023-02-03T00:02:25;23.15;;;13.35;;
13611;SDS011;6877;51.436;6.774;2023-02-03T00:04:52;27.40;;;13.52;;
13611;SDS011;6877;51.436;6.774;2023-02-03T00:07:18;21.05;;;13.10;;
13611;SDS011;6877;51.436;6.774;2023-02-03T00:09:45;28.23;;;13.25;;
13611;SDS011;6877;51.436;6.774;2023-02-03T00:12:12;25.23;;;13.70;;
13611;SDS011;6877;51.436;6.774;2023-02-03T00:14:41;23.67;;;13.55;;
13611;SDS011;6877;51.436;6.774;2023-02-03T00:17:13;29.60;;;13.57;;
13611;SDS011;6877;51.436;6.774;2023-02-03T00:19:40;25.50;;;13.60;;
13611;SDS011;6877;51.436;6.774;2023-02-03T00:22:06;22.55;;;12.95;;
13611;SDS011;6877;51.436;6.774;2023-02-03T00:24:33;24.38;;;13.75;;
13611;SDS011;6877;51.436;6.774;2023-02-03T00:26:59;21.58;;;13.73;;
13611;SDS011;6877;51.436;6.774;2023-02-03T00:29:26;25.00;;;12.82;;
13611;SDS011;6877;51.436;6.774;2023-02-03T00:31:57;21.48;;;13.20;;
13611;SDS011;6877;51.436;6.774;2023-02-03T00:34:27;25.98;;;13.88;;
13611;SDS011;6877;51.436;6.774;2023-02-03T00:36:55;26.75;;;13.05;;
13611;SDS011;6877;51.436;6.774;2023-02-03T00:39:21;39.33;;;17.33;;
13611;SDS011;6877;51.436;6.774;2023-02-03T00:41:48;16.55;;;11.43;;
13611;SDS011;6877;51.436;6.774;2023-02-03T00:44:15;27.55;;;14.15;;
13611;SDS011;6877;51.436;6.774;2023-02-03T00:46:41;27.58;;;13.95;;
13611;SDS011;6877;51.436;6.774;2023-02-03T00:49:12;27.75;;;15.50;;
13611;SDS011;6877;51.436;6.774;2023-02-03T00:51:39;36.97;;;16.58;;
13611;SDS011;6877;51.436;6.774;2023-02-03T00:54:06;26.58;;;16.10;;
13611;SDS011;6877;51.436;6.774;2023-02-03T00:56:33;34.60;;;15.73;;
13611;SDS011;6877;51.436;6.774;2023-02-03T00:59:04;26.75;;;14.70;;
13611;SDS011;6877;51.436;6.774;2023-02-03T01:01:32;31.02;;;16.27;;
13611;SDS011;6877;51.436;6.774;2023-02-03T01:04:04;32.22;;;15.38;;
13611;SDS011;6877;51.436;6.774;2023-02-03T01:06:30;33.03;;;15.18;;
13611;SDS011;6877;51.436;6.774;2023-02-03T01:08:57;25.13;;;12.95;;
13611;SDS011;6877;51.436;6.774;2023-02-03T01:11:24;36.08;;;15.27;;
13611;SDS011;6877;51.436;6.774;2023-02-03T01:13:52;41.13;;;18.63;;
13611;SDS011;6877;51.436;6.774;2023-02-03T01:16:25;33.05;;;14.88;;
13611;SDS011;6877;51.436;6.774;2023-02-03T01:18:56;24.48;;;14.68;;
13611;SDS011;6877;51.436;6.774;2023-02-03T01:21:28;25.33;;;13.07;;
13611;SDS011;6877;51.436;6.774;2023-02-03T01:23:54;25.45;;;13.20;;
13611;SDS011;6877;51.436;6.774;2023-02-03T01:26:22;23.58;;;12.65;;
13611;SDS011;6877;51.436;6.774;2023-02-03T01:28:55;30.42;;;14.48;;
13611;SDS011;6877;51.436;6.774;2023-02-03T01:31:32;27.88;;;13.68;;
13611;SDS011;6877;51.436;6.774;2023-02-03T01:34:02;27.90;;;15.45;;
13611;SDS011;6877;51.436;6.774;2023-02-03T01:36:29;24.73;;;13.55;;
13611;SDS011;6877;51.436;6.774;2023-02-03T01:39:03;36.38;;;14.55;;
13611;SDS011;6877;51.436;6.774;2023-02-03T01:41:34;24.40;;;14.13;;
13611;SDS011;6877;51.436;6.774;2023-02-03T01:47:15;24.52;;;13.68;;
13611;SDS011;6877;51.436;6.774;2023-02-03T01:49:54;23.98;;;12.60;;
13611;SDS011;6877;51.436;6.774;2023-02-03T01:52:32;28.35;;;13.13;;
13611;SDS011;6877;51.436;6.774;2023-02-03T01:55:07;22.23;;;11.90;;
13611;SDS011;6877;51.436;6.774;2023-02-03T01:57:51;19.33;;;10.95;;
13611;SDS011;6877;51.436;6.774;2023-02-03T02:00:24;21.35;;;12.80;;
13611;SDS011;6877;51.436;6.774;2023-02-03T02:02:56;19.67;;;11.48;;
13611;SDS011;6877;51.436;6.774;2023-02-03T02:07:59;23.10;;;11.35;;
13611;SDS011;6877;51.436;6.774;2023-02-03T02:10:29;24.35;;;9.93;;
13611;SDS011;6877;51.436;6.774;2023-02-03T02:12:56;24.27;;;11.70;;
13611;SDS011;6877;51.436;6.774;2023-02-03T02:15:26;20.65;;;11.82;;
13611;SDS011;6877;51.436;6.774;2023-02-03T02:18:23;26.08;;;12.02;;
13611;SDS011;6877;51.436;6.774;2023-02-03T02:35:18;20.90;;;11.45;;
13611;SDS011;6877;51.436;6.774;2023-02-03T02:38:13;27.63;;;10.25;;
13611;SDS011;6877;51.436;6.774;2023-02-03T02:40:59;21.23;;;10.70;;
13611;SDS011;6877;51.436;6.774;2023-02-03T02:43:41;16.15;;;9.30;;
13611;SDS011;6877;51.436;6.774;2023-02-03T02:46:18;18.73;;;8.95;;
13611;SDS011;6877;51.436;6.774;2023-02-03T02:49:03;17.13;;;8.98;;
13611;SDS011;6877;51.436;6.774;2023-02-03T02:51:34;22.30;;;9.88;;
13611;SDS011;6877;51.436;6.774;2023-02-03T02:54:04;18.38;;;9.30;;
13611;SDS011;6877;51.436;6.774;2023-02-03T02:56:34;22.25;;;8.30;;
13611;SDS011;6877;51.436;6.774;2023-02-03T02:59:04;14.10;;;8.18;;
13611;SDS011;6877;51.436;6.774;2023-02-03T03:01:32;14.23;;;7.43;;
13611;SDS011;6877;51.436;6.774;2023-02-03T03:04:04;16.33;;;8.57;;
13611;SDS011;6877;51.436;6.774;2023-02-03T03:06:43;19.15;;;9.57;;
13611;SDS011;6877;51.436;6.774;2023-02-03T03:09:24;21.73;;;8.18;;
13611;SDS011;6877;51.436;6.774;2023-02-03T03:14:33;19.95;;;7.03;;
13611;SDS011;6877;51.436;6.774;2023-02-03T03:17:03;13.25;;;6.90;;
13611;SDS011;6877;51.436;6.774;2023-02-03T03:19:34;16.48;;;7.95;;
13611;SDS011;6877;51.436;6.774;2023-02-03T03:22:10;15.63;;;7.30;;
13611;SDS011;6877;51.436;6.774;2023-02-03T03:24:47;11.48;;;7.15;;
13611;SDS011;6877;51.436;6.774;2023-02-03T03:27:23;19.63;;;8.45;;
13611;SDS011;6877;51.436;6.774;2023-02-03T03:29:59;10.07;;;5.97;;
13611;SDS011;6877;51.436;6.774;2023-02-03T03:32:34;15.30;;;6.82;;
13611;SDS011;6877;51.436;6.774;2023-02-03T03:35:02;12.77;;;7.10;;
13611;SDS011;6877;51.436;6.774;2023-02-03T03:37:43;15.68;;;7.60;;
13611;SDS011;6877;51.436;6.774;2023-02-03T03:40:20;15.63;;;7.40;;
13611;SDS011;6877;51.436;6.774;2023-02-03T03:42:57;14.30;;;8.52;;
13611;SDS011;6877;51.436;6.774;2023-02-03T03:45:30;19.33;;;8.13;;
13611;SDS011;6877;51.436;6.774;2023-02-03T03:48:12;13.43;;;7.28;;
13611;SDS011;6877;51.436;6.774;2023-02-03T03:51:09;15.43;;;8.05;;
13611;SDS011;6877;51.436;6.774;2023-02-03T03:53:39;12.05;;;7.10;;
13611;SDS011;6877;51.436;6.774;2023-02-03T03:56:10;13.90;;;6.57;;
13611;SDS011;6877;51.436;6.774;2023-02-03T03:58:49;12.85;;;7.55;;
13611;SDS011;6877;51.436;6.774;2023-02-03T04:01:19;10.85;;;5.75;;
13611;SDS011;6877;51.436;6.774;2023-02-03T04:03:54;19.08;;;7.03;;
13611;SDS011;6877;51.436;6.774;2023-02-03T04:06:29;15.38;;;6.20;;
13611;SDS011;6877;51.436;6.774;2023-02-03T04:09:00;15.95;;;7.40;;
13611;SDS011;6877;51.436;6.774;2023-02-03T04:11:27;14.15;;;7.25;;
13611;SDS011;6877;51.436;6.774;2023-02-03T04:14:16;13.68;;;7.90;;
13611;SDS011;6877;51.436;6.774;2023-02-03T04:16:43;14.70;;;6.75;;
13611;SDS011;6877;51.436;6.774;2023-02-03T04:19:14;14.43;;;7.18;;
13611;SDS011;6877;51.436;6.774;2023-02-03T04:21:41;14.30;;;6.47;;
13611;SDS011;6877;51.436;6.774;2023-02-03T04:24:12;16.80;;;6.15;;
13611;SDS011;6877;51.436;6.774;2023-02-03T04:26:39;12.45;;;6.70;;
13611;SDS011;6877;51.436;6.774;2023-02-03T04:29:10;19.98;;;10.18;;
13611;SDS011;6877;51.436;6.774;2023-02-03T04:31:37;13.63;;;7.60;;
13611;SDS011;6877;51.436;6.774;2023-02-03T04:34:08;16.75;;;7.10;;
13611;SDS011;6877;51.436;6.774;2023-02-03T04:36:40;15.93;;;7.18;;
13611;SDS011;6877;51.436;6.774;2023-02-03T04:39:11;17.58;;;8.45;;
13611;SDS011;6877;51.436;6.774;2023-02-03T04:41:37;15.63;;;6.88;;
13611;SDS011;6877;51.436;6.774;2023-02-03T04:44:05;11.43;;;6.82;;
13611;SDS011;6877;51.436;6.774;2023-02-03T04:46:31;11.35;;;6.30;;
13611;SDS011;6877;51.436;6.774;2023-02-03T04:48:58;14.38;;;7.20;;
13611;SDS011;6877;51.436;6.774;2023-02-03T04:51:24;17.35;;;7.68;;
13611;SDS011;6877;51.436;6.774;2023-02-03T04:53:50;16.67;;;6.43;;
13611;SDS011;6877;51.436;6.774;2023-02-03T04:56:17;8.63;;;5.95;;
13611;SDS011;6877;51.436;6.774;2023-02-03T04:58:43;15.23;;;6.55;;
13611;SDS011;6877;51.436;6.774;2023-02-03T05:01:10;22.73;;;7.47;;
13611;SDS011;6877;51.436;6.774;2023-02-03T05:03:36;21.05;;;9.32;;
13611;SDS011;6877;51.436;6.774;2023-02-03T05:06:03;16.70;;;8.20;;
13611;SDS011;6877;51.436;6.774;2023-02-03T05:08:30;19.92;;;8.43;;
13611;SDS011;6877;51.436;6.774;2023-02-03T05:10:57;16.77;;;8.50;;
13611;SDS011;6877;51.436;6.774;2023-02-03T05:13:23;21.05;;;8.07;;
13611;SDS011;6877;51.436;6.774;2023-02-03T05:15:50;15.82;;;7.40;;
13611;SDS011;6877;51.436;6.774;2023-02-03T05:18:16;18.38;;;8.15;;
13611;SDS011;6877;51.436;6.774;2023-02-03T05:20:47;15.80;;;5.90;;
13611;SDS011;6877;51.436;6.774;2023-02-03T05:23:19;16.40;;;6.47;;
13611;SDS011;6877;51.436;6.774;2023-02-03T05:25:45;21.10;;;6.45;;
13611;SDS011;6877;51.436;6.774;2023-02-03T05:28:16;13.05;;;5.32;;
13611;SDS011;6877;51.436;6.774;2023-02-03T05:30:48;11.82;;;5.05;;
13611;SDS011;6877;51.436;6.774;2023-02-03T05:33:19;9.98;;;4.40;;
13611;SDS011;6877;51.436;6.774;2023-02-03T05:35:46;9.27;;;4.15;;
13611;SDS011;6877;51.436;6.774;2023-02-03T05:38:12;14.32;;;4.45;;
13611;SDS011;6877;51.436;6.774;2023-02-03T05:40:38;14.85;;;4.53;;
13611;SDS011;6877;51.436;6.774;2023-02-03T05:43:23;12.73;;;5.22;;
13611;SDS011;6877;51.436;6.774;2023-02-03T05:45:50;9.73;;;4.90;;
13611;SDS011;6877;51.436;6.774;2023-02-03T05:48:24;9.55;;;4.55;;
13611;SDS011;6877;51.436;6.774;2023-02-03T05:50:51;14.70;;;5.25;;
13611;SDS011;6877;51.436;6.774;2023-02-03T05:53:17;14.18;;;5.10;;
13611;SDS011;6877;51.436;6.774;2023-02-03T05:55:49;15.85;;;5.15;;
13611;SDS011;6877;51.436;6.774;2023-02-03T05:58:22;7.75;;;4.03;;
13611;SDS011;6877;51.436;6.774;2023-02-03T06:00:49;15.70;;;4.03;;
13611;SDS011;6877;51.436;6.774;2023-02-03T06:03:20;10.70;;;4.35;;
13611;SDS011;6877;51.436;6.774;2023-02-03T06:05:46;10.32;;;5.22;;
13611;SDS011;6877;51.436;6.774;2023-02-03T06:08:18;12.07;;;5.63;;
13611;SDS011;6877;51.436;6.774;2023-02-03T06:10:49;11.35;;;4.97;;
13611;SDS011;6877;51.436;6.774;2023-02-03T06:13:16;13.20;;;4.20;;
13611;SDS011;6877;51.436;6.774;2023-02-03T06:15:42;8.95;;;4.38;;
13611;SDS011;6877;51.436;6.774;2023-02-03T06:18:10;11.63;;;4.57;;
13611;SDS011;6877;51.436;6.774;2023-02-03T06:20:41;15.73;;;5.50;;
13611;SDS011;6877;51.436;6.774;2023-02-03T06:23:08;11.05;;;3.78;;
13611;SDS011;6877;51.436;6.774;2023-02-03T06:25:34;9.27;;;4.38;;
13611;SDS011;6877;51.436;6.774;2023-02-03T06:28:00;10.60;;;3.53;;
13611;SDS011;6877;51.436;6.774;2023-02-03T06:30:27;8.43;;;3.72;;
13611;SDS011;6877;51.436;6.774;2023-02-03T06:32:53;7.60;;;4.43;;
13611;SDS011;6877;51.436;6.774;2023-02-03T06:35:25;11.88;;;4.10;;
13611;SDS011;6877;51.436;6.774;2023-02-03T06:37:51;8.50;;;4.15;;
13611;SDS011;6877;51.436;6.774;2023-02-03T06:40:18;28.90;;;5.70;;
13611;SDS011;6877;51.436;6.774;2023-02-03T06:42:49;7.43;;;4.40;;
13611;SDS011;6877;51.436;6.774;2023-02-03T06:45:21;15.25;;;4.93;;
13611;SDS011;6877;51.436;6.774;2023-02-03T06:47:54;13.95;;;4.50;;
13611;SDS011;6877;51.436;6.774;2023-02-03T06:50:21;7.75;;;3.78;;
13611;SDS011;6877;51.436;6.774;2023-02-03T06:52:48;7.63;;;3.72;;
13611;SDS011;6877;51.436;6.774;2023-02-03T06:55:14;11.52;;;5.60;;
13611;SDS011;6877;51.436;6.774;2023-02-03T06:57:46;9.93;;;4.10;;
13611;SDS011;6877;51.436;6.774;2023-02-03T07:00:14;17.02;;;4.82;;
13611;SDS011;6877;51.436;6.774;2023-02-03T07:02:42;8.52;;;4.00;;
13611;SDS011;6877;51.436;6.774;2023-02-03T07:05:10;9.25;;;3.88;;
13611;SDS011;6877;51.436;6.774;2023-02-03T07:07:36;13.23;;;4.43;;
13611;SDS011;6877;51.436;6.774;2023-02-03T07:10:05;8.77;;;3.80;;
13611;SDS011;6877;51.436;6.774;2023-02-03T07:12:32;12.93;;;4.22;;
13611;SDS011;6877;51.436;6.774;2023-02-03T07:15:03;12.30;;;4.18;;
13611;SDS011;6877;51.436;6.774;2023-02-03T07:17:30;11.65;;;4.68;;
13611;SDS011;6877;51.436;6.774;2023-02-03T07:19:57;7.40;;;3.83;;
13611;SDS011;6877;51.436;6.774;2023-02-03T07:22:26;6.18;;;3.75;;
13611;SDS011;6877;51.436;6.774;2023-02-03T07:24:52;8.73;;;3.25;;
13611;SDS011;6877;51.436;6.774;2023-02-03T07:27:19;9.15;;;4.10;;
13611;SDS011;6877;51.436;6.774;2023-02-03T07:29:45;15.07;;;4.32;;
13611;SDS011;6877;51.436;6.774;2023-02-03T07:32:12;12.43;;;4.03;;
13611;SDS011;6877;51.436;6.774;2023-02-03T07:34:38;12.10;;;4.38;;
13611;SDS011;6877;51.436;6.774;2023-02-03T07:37:05;12.13;;;5.00;;
13611;SDS011;6877;51.436;6.774;2023-02-03T07:39:31;10.07;;;4.32;;
13611;SDS011;6877;51.436;6.774;2023-02-03T07:41:58;10.85;;;4.30;;
13611;SDS011;6877;51.436;6.774;2023-02-03T07:44:25;9.20;;;4.30;;
13611;SDS011;6877;51.436;6.774;2023-02-03T07:46:51;8.05;;;4.35;;
13611;SDS011;6877;51.436;6.774;2023-02-03T07:49:20;5.80;;;4.10;;
13611;SDS011;6877;51.436;6.774;2023-02-03T07:51:47;11.90;;;3.88;;
13611;SDS011;6877;51.436;6.774;2023-02-03T07:54:13;9.27;;;4.70;;
13611;SDS011;6877;51.436;6.774;2023-02-03T07:56:45;8.38;;;3.75;;
13611;SDS011;6877;51.436;6.774;2023-02-03T07:59:11;7.70;;;3.88;;
13611;SDS011;6877;51.436;6.774;2023-02-03T08:01:40;9.38;;;4.30;;
13611;SDS011;6877;51.436;6.774;2023-02-03T08:04:14;8.93;;;3.58;;
13611;SDS011;6877;51.436;6.774;2023-02-03T08:06:42;13.43;;;3.78;;
13611;SDS011;6877;51.436;6.774;2023-02-03T08:09:09;10.55;;;5.07;;
13611;SDS011;6877;51.436;6.774;2023-02-03T08:11:40;5.78;;;3.88;;
13611;SDS011;6877;51.436;6.774;2023-02-03T08:14:06;7.00;;;3.78;;
13611;SDS011;6877;51.436;6.774;2023-02-03T08:16:33;8.65;;;4.05;;
13611;SDS011;6877;51.436;6.774;2023-02-03T08:18:59;8.77;;;3.95;;
13611;SDS011;6877;51.436;6.774;2023-02-03T08:21:31;10.38;;;4.28;;
13611;SDS011;6877;51.436;6.774;2023-02-03T08:23:57;6.53;;;3.50;;
13611;SDS011;6877;51.436;6.774;2023-02-03T08:26:24;9.18;;;4.20;;
13611;SDS011;6877;51.436;6.774;2023-02-03T08:28:50;16.60;;;3.75;;
13611;SDS011;6877;51.436;6.774;2023-02-03T08:31:17;10.00;;;4.20;;
13611;SDS011;6877;51.436;6.774;2023-02-03T08:33:43;13.95;;;3.72;;
13611;SDS011;6877;51.436;6.774;2023-02-03T08:36:10;4.60;;;3.35;;
13611;SDS011;6877;51.436;6.774;2023-02-03T08:38:37;6.13;;;3.60;;
13611;SDS011;6877;51.436;6.774;2023-02-03T08:41:09;12.00;;;4.07;;
13611;SDS011;6877;51.436;6.774;2023-02-03T08:43:42;7.93;;;3.53;;
13611;SDS011;6877;51.436;6.774;2023-02-03T08:46:10;12.13;;;3.85;;
13611;SDS011;6877;51.436;6.774;2023-02-03T08:48:37;9.82;;;3.85;;
13611;SDS011;6877;51.436;6.774;2023-02-03T08:51:13;10.68;;;4.00;;
13611;SDS011;6877;51.436;6.774;2023-02-03T08:53:46;8.35;;;4.53;;
13611;SDS011;6877;51.436;6.774;2023-02-03T08:56:18;10.90;;;5.72;;
13611;SDS011;6877;51.436;6.774;2023-02-03T08:58:44;7.43;;;3.83;;
13611;SDS011;6877;51.436;6.774;2023-02-03T09:01:14;11.93;;;4.45;;
13611;SDS011;6877;51.436;6.774;2023-02-03T09:03:40;6.85;;;3.67;;
13611;SDS011;6877;51.436;6.774;2023-02-03T09:06:07;8.20;;;5.07;;
13611;SDS011;6877;51.436;6.774;2023-02-03T09:08:36;6.07;;;3.65;;
13611;SDS011;6877;51.436;6.774;2023-02-03T09:11:07;8.48;;;4.50;;
13611;SDS011;6877;51.436;6.774;2023-02-03T09:13:41;5.68;;;3.30;;
13611;SDS011;6877;51.436;6.774;2023-02-03T09:16:11;12.20;;;4.00;;
13611;SDS011;6877;51.436;6.774;2023-02-03T09:18:44;9.52;;;3.50;;
13611;SDS011;6877;51.436;6.774;2023-02-03T09:21:11;6.60;;;3.20;;
13611;SDS011;6877;51.436;6.774;2023-02-03T09:23:39;9.93;;;4.43;;
13611;SDS011;6877;51.436;6.774;2023-02-03T09:26:09;10.25;;;4.18;;
13611;SDS011;6877;51.436;6.774;2023-02-03T09:28:37;21.67;;;6.20;;
13611;SDS011;6877;51.436;6.774;2023-02-03T09:31:05;11.82;;;3.40;;
13611;SDS011;6877;51.436;6.774;2023-02-03T09:33:32;5.93;;;3.60;;
13611;SDS011;6877;51.436;6.774;2023-02-03T09:35:59;8.77;;;4.15;;
13611;SDS011;6877;51.436;6.774;2023-02-03T09:38:31;9.25;;;5.15;;
13611;SDS011;6877;51.436;6.774;2023-02-03T09:43:36;8.38;;;4.43;;
13611;SDS011;6877;51.436;6.774;2023-02-03T09:46:17;7.25;;;3.95;;
13611;SDS011;6877;51.436;6.774;2023-02-03T09:48:47;9.13;;;4.53;;
13611;SDS011;6877;51.436;6.774;2023-02-03T09:51:24;15.93;;;4.75;;
13611;SDS011;6877;51.436;6.774;2023-02-03T09:54:01;11.35;;;4.75;;
13611;SDS011;6877;51.436;6.774;2023-02-03T09:56:38;9.00;;;4.10;;
13611;SDS011;6877;51.436;6.774;2023-02-03T09:59:07;11.57;;;5.05;;
13611;SDS011;6877;51.436;6.774;2023-02-03T10:04:46;8.35;;;5.05;;
13611;SDS011;6877;51.436;6.774;2023-02-03T10:18:20;11.95;;;4.50;;
13611;SDS011;6877;51.436;6.774;2023-02-03T10:21:02;8.88;;;4.07;;
13611;SDS011;6877;51.436;6.774;2023-02-03T10:23:38;7.47;;;3.92;;
13611;SDS011;6877;51.436;6.774;2023-02-03T10:26:15;10.02;;;4.03;;
13611;SDS011;6877;51.436;6.774;2023-02-03T10:28:50;11.88;;;4.28;;
13611;SDS011;6877;51.436;6.774;2023-02-03T10:31:26;8.57;;;4.82;;
13611;SDS011;6877;51.436;6.774;2023-02-03T10:34:00;11.50;;;5.10;;
13611;SDS011;6877;51.436;6.774;2023-02-03T10:39:44;12.63;;;5.95;;
13611;SDS011;6877;51.436;6.774;2023-02-03T10:42:12;23.75;;;6.05;;
13611;SDS011;6877;51.436;6.774;2023-02-03T10:44:55;12.80;;;5.35;;
13611;SDS011;6877;51.436;6.774;2023-02-03T10:50:08;8.38;;;4.32;;
13611;SDS011;6877;51.436;6.774;2023-02-03T10:52:41;13.02;;;4.13;;
13611;SDS011;6877;51.436;6.774;2023-02-03T10:57:50;12.73;;;4.28;;
13611;SDS011;6877;51.436;6.774;2023-02-03T11:02:56;12.60;;;5.28;;
13611;SDS011;6877;51.436;6.774;2023-02-03T11:05:31;10.30;;;4.32;;
13611;SDS011;6877;51.436;6.774;2023-02-03T11:07:57;11.57;;;4.22;;
13611;SDS011;6877;51.436;6.774;2023-02-03T11:13:16;14.02;;;4.68;;
13611;SDS011;6877;51.436;6.774;2023-02-03T11:21:31;10.50;;;5.20;;
13611;SDS011;6877;51.436;6.774;2023-02-03T11:24:08;10.32;;;4.53;;
13611;SDS011;6877;51.436;6.774;2023-02-03T11:27:19;11.27;;;4.90;;
13611;SDS011;6877;51.436;6.774;2023-02-03T11:29:41;10.05;;;4.90;;
13611;SDS011;6877;51.436;6.774;2023-02-03T11:32:19;6.97;;;4.22;;
13611;SDS011;6877;51.436;6.774;2023-02-03T11:37:27;6.63;;;3.70;;
13611;SDS011;6877;51.436;6.774;2023-02-03T11:42:32;15.98;;;5.30;;
13611;SDS011;6877;51.436;6.774;2023-02-03T11:47:47;14.77;;;4.63;;
13611;SDS011;6877;51.436;6.774;2023-02-03T11:50:35;10.77;;;5.50;;
13611;SDS011;6877;51.436;6.774;2023-02-03T11:55:58;8.45;;;4.70;;
13611;SDS011;6877;51.436;6.774;2023-02-03T11:58:45;8.75;;;4.63;;
13611;SDS011;6877;51.436;6.774;2023-02-03T12:07:18;10.43;;;5.22;;
13611;SDS011;6877;51.436;6.774;2023-02-03T12:12:40;13.93;;;4.78;;
13611;SDS011;6877;51.436;6.774;2023-02-03T12:29:37;11.60;;;6.30;;
13611;SDS011;6877;51.436;6.774;2023-02-03T12:32:43;14.88;;;4.90;;
13611;SDS011;6877;51.436;6.774;2023-02-03T12:40:39;18.27;;;6.18;;
13611;SDS011;6877;51.436;6.774;2023-02-03T12:46:28;10.43;;;5.00;;
13611;SDS011;6877;51.436;6.774;2023-02-03T12:51:42;10.20;;;5.55;;
13611;SDS011;6877;51.436;6.774;2023-02-03T12:54:34;11.35;;;4.97;;
13611;SDS011;6877;51.436;6.774;2023-02-03T12:57:11;8.93;;;5.07;;
13611;SDS011;6877;51.436;6.774;2023-02-03T12:59:45;11.45;;;4.93;;
13611;SDS011;6877;51.436;6.774;2023-02-03T13:02:25;23.50;;;7.43;;
13611;SDS011;6877;51.436;6.774;2023-02-03T13:05:04;9.73;;;4.13;;
13611;SDS011;6877;51.436;6.774;2023-02-03T13:07:43;9.23;;;4.82;;
13611;SDS011;6877;51.436;6.774;2023-02-03T13:13:21;10.68;;;5.05;;
13611;SDS011;6877;51.436;6.774;2023-02-03T13:15:53;8.75;;;5.07;;
13611;SDS011;6877;51.436;6.774;2023-02-03T13:18:30;13.85;;;5.10;;
13611;SDS011;6877;51.436;6.774;2023-02-03T13:21:00;11.77;;;5.60;;
13611;SDS011;6877;51.436;6.774;2023-02-03T13:23:31;13.57;;;4.75;;
13611;SDS011;6877;51.436;6.774;2023-02-03T13:40:11;9.90;;;4.65;;
13611;SDS011;6877;51.436;6.774;2023-02-03T13:43:02;9.70;;;4.90;;
13611;SDS011;6877;51.436;6.774;2023-02-03T13:45:36;11.00;;;5.30;;
13611;SDS011;6877;51.436;6.774;2023-02-03T13:48:08;9.90;;;5.25;;
13611;SDS011;6877;51.436;6.774;2023-02-03T13:50:40;13.00;;;4.63;;
13611;SDS011;6877;51.436;6.774;2023-02-03T13:53:21;10.32;;;4.47;;
13611;SDS011;6877;51.436;6.774;2023-02-03T13:55:52;8.55;;;3.60;;
13611;SDS011;6877;51.436;6.774;2023-02-03T13:58:20;6.72;;;4.60;;
13611;SDS011;6877;51.436;6.774;2023-02-03T14:05:50;11.73;;;4.00;;
13611;SDS011;6877;51.436;6.774;2023-02-03T14:19:04;9.90;;;3.70;;
13611;SDS011;6877;51.436;6.774;2023-02-03T14:21:46;5.20;;;3.58;;
13611;SDS011;6877;51.436;6.774;2023-02-03T14:24:28;11.90;;;4.45;;
13611;SDS011;6877;51.436;6.774;2023-02-03T14:27:13;11.80;;;3.33;;
13611;SDS011;6877;51.436;6.774;2023-02-03T14:29:44;18.38;;;4.35;;
13611;SDS011;6877;51.436;6.774;2023-02-03T14:32:12;20.42;;;4.45;;
13611;SDS011;6877;51.436;6.774;2023-02-03T14:34:40;11.32;;;4.07;;
13611;SDS011;6877;51.436;6.774;2023-02-03T14:45:40;16.25;;;4.47;;
13611;SDS011;6877;51.436;6.774;2023-02-03T14:51:12;27.33;;;4.75;;
13611;SDS011;6877;51.436;6.774;2023-02-03T14:59:46;13.50;;;4.30;;
13611;SDS011;6877;51.436;6.774;2023-02-03T15:03:14;12.60;;;4.63;;
13611;SDS011;6877;51.436;6.774;2023-02-03T15:07:57;17.35;;;4.15;;
13611;SDS011;6877;51.436;6.774;2023-02-03T15:10:28;27.05;;;4.88;;
13611;SDS011;6877;51.436;6.774;2023-02-03T15:15:55;17.77;;;4.65;;
13611;SDS011;6877;51.436;6.774;2023-02-03T15:18:28;12.63;;;4.10;;
13611;SDS011;6877;51.436;6.774;2023-02-03T15:21:03;10.05;;;4.25;;
13611;SDS011;6877;51.436;6.774;2023-02-03T15:23:37;20.92;;;4.32;;
13611;SDS011;6877;51.436;6.774;2023-02-03T15:26:23;12.35;;;4.10;;
13611;SDS011;6877;51.436;6.774;2023-02-03T15:29:01;19.17;;;5.22;;
13611;SDS011;6877;51.436;6.774;2023-02-03T15:31:33;7.70;;;4.25;;
13611;SDS011;6877;51.436;6.774;2023-02-03T15:34:18;8.68;;;5.05;;
13611;SDS011;6877;51.436;6.774;2023-02-03T15:36:50;21.20;;;6.63;;
13611;SDS011;6877;51.436;6.774;2023-02-03T15:42:04;14.88;;;4.88;;
13611;SDS011;6877;51.436;6.774;2023-02-03T15:44:43;18.60;;;6.15;;
13611;SDS011;6877;51.436;6.774;2023-02-03T15:47:30;19.50;;;4.57;;
13611;SDS011;6877;51.436;6.774;2023-02-03T15:50:03;21.10;;;5.68;;
13611;SDS011;6877;51.436;6.774;2023-02-03T15:52:35;22.05;;;5.80;;
13611;SDS011;6877;51.436;6.774;2023-02-03T15:55:08;21.05;;;5.43;;
13611;SDS011;6877;51.436;6.774;2023-02-03T15:57:42;14.60;;;5.05;;
13611;SDS011;6877;51.436;6.774;2023-02-03T16:02:59;16.27;;;6.57;;
13611;SDS011;6877;51.436;6.774;2023-02-03T16:05:30;19.70;;;6.18;;
13611;SDS011;6877;51.436;6.774;2023-02-03T16:11:21;19.58;;;6.78;;
13611;SDS011;6877;51.436;6.774;2023-02-03T16:13:53;14.38;;;5.65;;
13611;SDS011;6877;51.436;6.774;2023-02-03T16:16:29;17.75;;;5.95;;
13611;SDS011;6877;51.436;6.774;2023-02-03T16:19:02;16.27;;;5.97;;
13611;SDS011;6877;51.436;6.774;2023-02-03T16:21:35;22.05;;;5.32;;
13611;SDS011;6877;51.436;6.774;2023-02-03T16:29:54;21.35;;;5.65;;
13611;SDS011;6877;51.436;6.774;2023-02-03T16:36:00;16.05;;;5.40;;
13611;SDS011;6877;51.436;6.774;2023-02-03T16:38:53;17.15;;;5.90;;
13611;SDS011;6877;51.436;6.774;2023-02-03T16:41:38;30.20;;;6.07;;
13611;SDS011;6877;51.436;6.774;2023-02-03T16:44:23;21.88;;;6.22;;
13611;SDS011;6877;51.436;6.774;2023-02-03T16:47:41;25.70;;;7.13;;
13611;SDS011;6877;51.436;6.774;2023-02-03T16:50:22;19.30;;;6.95;;
13611;SDS011;6877;51.436;6.774;2023-02-03T16:53:12;23.85;;;7.22;;
13611;SDS011;6877;51.436;6.774;2023-02-03T16:55:47;22.52;;;6.45;;
13611;SDS011;6877;51.436;6.774;2023-02-03T16:58:14;24.00;;;6.15;;
13611;SDS011;6877;51.436;6.774;2023-02-03T17:00:45;29.70;;;8.68;;
13611;SDS011;6877;51.436;6.774;2023-02-03T17:03:16;22.25;;;6.43;;
13611;SDS011;6877;51.436;6.774;2023-02-03T17:05:50;27.48;;;7.78;;
13611;SDS011;6877;51.436;6.774;2023-02-03T17:08:20;19.45;;;5.72;;
13611;SDS011;6877;51.436;6.774;2023-02-03T17:10:51;18.13;;;4.93;;
13611;SDS011;6877;51.436;6.774;2023-02-03T17:13:18;19.95;;;6.45;;
13611;SDS011;6877;51.436;6.774;2023-02-03T17:15:55;16.23;;;5.68;;
13611;SDS011;6877;51.436;6.774;2023-02-03T17:18:26;20.05;;;8.35;;
13611;SDS011;6877;51.436;6.774;2023-02-03T17:21:02;31.42;;;6.97;;
13611;SDS011;6877;51.436;6.774;2023-02-03T17:23:35;18.55;;;5.78;;
13611;SDS011;6877;51.436;6.774;2023-02-03T17:26:03;25.35;;;6.38;;
13611;SDS011;6877;51.436;6.774;2023-02-03T17:28:33;17.25;;;7.43;;
13611;SDS011;6877;51.436;6.774;2023-02-03T17:31:02;24.67;;;6.57;;
13611;SDS011;6877;51.436;6.774;2023-02-03T17:33:31;20.17;;;5.57;;
13611;SDS011;6877;51.436;6.774;2023-02-03T17:38:27;19.50;;;5.30;;
13611;SDS011;6877;51.436;6.774;2023-02-03T17:40:54;16.92;;;5.22;;
13611;SDS011;6877;51.436;6.774;2023-02-03T17:43:40;15.52;;;5.60;;
13611;SDS011;6877;51.436;6.774;2023-02-03T17:46:26;22.52;;;6.30;;
13611;SDS011;6877;51.436;6.774;2023-02-03T17:49:12;24.38;;;5.63;;
13611;SDS011;6877;51.436;6.774;2023-02-03T17:51:56;16.27;;;6.22;;
13611;SDS011;6877;51.436;6.774;2023-02-03T17:54:40;15.70;;;4.68;;
13611;SDS011;6877;51.436;6.774;2023-02-03T17:57:12;13.23;;;4.65;;
13611;SDS011;6877;51.436;6.774;2023-02-03T17:59:38;35.75;;;10.73;;
13611;SDS011;6877;51.436;6.774;2023-02-03T18:02:05;18.13;;;5.57;;
13611;SDS011;6877;51.436;6.774;2023-02-03T18:04:32;21.75;;;5.35;;
13611;SDS011;6877;51.436;6.774;2023-02-03T18:07:00;19.10;;;5.38;;
13611;SDS011;6877;51.436;6.774;2023-02-03T18:09:26;19.90;;;5.78;;
13611;SDS011;6877;51.436;6.774;2023-02-03T18:11:53;15.65;;;5.15;;
13611;SDS011;6877;51.436;6.774;2023-02-03T18:14:19;17.67;;;5.25;;
13611;SDS011;6877;51.436;6.774;2023-02-03T18:16:46;19.95;;;5.05;;
13611;SDS011;6877;51.436;6.774;2023-02-03T18:19:17;13.68;;;4.38;;